sensor_id;sensor_type;location;lat;lon;timestamp;P1;durP1;ratioP1;P2;durP2;ratioP2
75285;SDS011;63879;46.064;14.532;2023-02-21T07:01:10;22.15;;;11.30;;
75285;SDS011;63879;46.064;14.532;2023-02-21T07:03:39;21.70;;;10.90;;
75285;SDS011;63879;46.064;14.532;2023-02-21T07:06:07;21.13;;;11.15;;
75285;SDS011;63879;46.064;14.532;2023-02-21T07:08:32;21.73;;;10.02;;
75285;SDS011;63879;46.064;14.532;2023-02-21T07:10:58;19.97;;;10.13;;
75285;SDS011;63879;46.064;14.532;2023-02-21T07:13:23;22.20;;;12.05;;
75285;SDS011;63879;46.064;14.532;2023-02-21T07:15:48;19.23;;;10.50;;
75285;SDS011;63879;46.064;14.532;2023-02-21T07:18:14;21.60;;;11.80;;
75285;SDS011;63879;46.064;14.532;2023-02-21T07:20:39;24.10;;;12.02;;
75285;SDS011;63879;46.064;14.532;2023-02-21T07:23:04;22.27;;;11.25;;
75285;SDS011;63879;46.064;14.532;2023-02-21T07:25:30;22.17;;;11.40;;
75285;SDS011;63879;46.064;14.532;2023-02-21T07:27:55;19.75;;;11.20;;
75285;SDS011;63879;46.064;14.532;2023-02-21T07:30:21;21.63;;;11.50;;
75285;SDS011;63879;46.064;14.532;2023-02-21T07:32:46;20.73;;;11.43;;
75285;SDS011;63879;46.064;14.532;2023-02-21T07:35:11;21.73;;;12.50;;
75285;SDS011;63879;46.064;14.532;2023-02-21T07:37:37;19.53;;;10.20;;
75285;SDS011;63879;46.064;14.532;2023-02-21T07:40:02;25.77;;;11.23;;
75285;SDS011;63879;46.064;14.532;2023-02-21T07:42:29;19.10;;;11.07;;
75285;SDS011;63879;46.064;14.532;2023-02-21T07:44:57;21.53;;;12.37;;
75285;SDS011;63879;46.064;14.532;2023-02-21T07:47:23;19.58;;;10.73;;
75285;SDS011;63879;46.064;14.532;2023-02-21T07:49:50;19.65;;;10.98;;
75285;SDS011;63879;46.064;14.532;2023-02-21T07:52:16;24.02;;;12.40;;
75285;SDS011;63879;46.064;14.532;2023-02-21T07:54:42;21.80;;;12.00;;
75285;SDS011;63879;46.064;14.532;2023-02-21T07:57:08;23.45;;;12.38;;
75285;SDS011;63879;46.064;14.532;2023-02-21T07:59:33;24.23;;;11.47;;
75285;SDS011;63879;46.064;14.532;2023-02-21T08:01:58;29.43;;;13.20;;
75285;SDS011;63879;46.064;14.532;2023-02-21T08:04:24;20.00;;;11.13;;
75285;SDS011;63879;46.064;14.532;2023-02-21T08:06:49;24.77;;;12.82;;
75285;SDS011;63879;46.064;14.532;2023-02-21T08:09:15;26.25;;;12.65;;
75285;SDS011;63879;46.064;14.532;2023-02-21T08:11:40;27.63;;;13.00;;
75285;SDS011;63879;46.064;14.532;2023-02-21T08:14:06;26.40;;;12.60;;
75285;SDS011;63879;46.064;14.532;2023-02-21T08:16:31;26.85;;;12.63;;
75285;SDS011;63879;46.064;14.532;2023-02-21T08:18:57;24.52;;;12.32;;
75285;SDS011;63879;46.064;14.532;2023-02-21T08:21:23;25.10;;;12.02;;
75285;SDS011;63879;46.064;14.532;2023-02-21T08:23:50;25.77;;;13.18;;
75285;SDS011;63879;46.064;14.532;2023-02-21T08:26:17;24.98;;;12.27;;
75285;SDS011;63879;46.064;14.532;2023-02-21T08:28:42;23.80;;;13.00;;
75285;SDS011;63879;46.064;14.532;2023-02-21T08:31:08;23.27;;;11.73;;
75285;SDS011;63879;46.064;14.532;2023-02-21T08:33:33;25.27;;;12.80;;
75285;SDS011;63879;46.064;14.532;2023-02-21T08:35:58;25.33;;;14.30;;
75285;SDS011;63879;46.064;14.532;2023-02-21T08:38:24;22.63;;;11.25;;
75285;SDS011;63879;46.064;14.532;2023-02-21T08:40:49;22.37;;;11.27;;
75285;SDS011;63879;46.064;14.532;2023-02-21T08:43:15;21.05;;;10.23;;
75285;SDS011;63879;46.064;14.532;2023-02-21T08:45:41;22.42;;;12.00;;
75285;SDS011;63879;46.064;14.532;2023-02-21T08:48:06;23.13;;;11.30;;
75285;SDS011;63879;46.064;14.532;2023-02-21T08:50:31;22.55;;;11.63;;
75285;SDS011;63879;46.064;14.532;2023-02-21T08:52:57;21.92;;;10.98;;
75285;SDS011;63879;46.064;14.532;2023-02-21T08:55:23;20.70;;;10.45;;
75285;SDS011;63879;46.064;14.532;2023-02-21T08:57:48;21.20;;;10.60;;
75285;SDS011;63879;46.064;14.532;2023-02-21T09:00:15;16.05;;;9.15;;
75285;SDS011;63879;46.064;14.532;2023-02-21T09:02:47;24.98;;;12.70;;
75285;SDS011;63879;46.064;14.532;2023-02-21T09:05:17;23.35;;;11.20;;
75285;SDS011;63879;46.064;14.532;2023-02-21T09:07:48;24.00;;;12.15;;
75285;SDS011;63879;46.064;14.532;2023-02-21T09:10:14;26.83;;;12.20;;
75285;SDS011;63879;46.064;14.532;2023-02-21T09:12:39;22.13;;;10.20;;
75285;SDS011;63879;46.064;14.532;2023-02-21T09:15:05;26.48;;;11.27;;
75285;SDS011;63879;46.064;14.532;2023-02-21T09:17:31;27.52;;;11.48;;
75285;SDS011;63879;46.064;14.532;2023-02-21T09:22:30;25.80;;;11.98;;
75285;SDS011;63879;46.064;14.532;2023-02-21T09:24:56;27.92;;;11.70;;
75285;SDS011;63879;46.064;14.532;2023-02-21T09:27:21;28.38;;;14.00;;
75285;SDS011;63879;46.064;14.532;2023-02-21T09:30:01;37.40;;;16.65;;
75285;SDS011;63879;46.064;14.532;2023-02-21T09:32:30;43.80;;;19.48;;
75285;SDS011;63879;46.064;14.532;2023-02-21T09:34:56;40.03;;;19.55;;
75285;SDS011;63879;46.064;14.532;2023-02-21T09:37:21;44.25;;;20.10;;
75285;SDS011;63879;46.064;14.532;2023-02-21T09:39:47;41.63;;;19.23;;
75285;SDS011;63879;46.064;14.532;2023-02-21T09:42:16;40.87;;;18.37;;
75285;SDS011;63879;46.064;14.532;2023-02-21T09:44:42;36.47;;;17.90;;
75285;SDS011;63879;46.064;14.532;2023-02-21T09:47:09;35.97;;;17.90;;
75285;SDS011;63879;46.064;14.532;2023-02-21T09:49:39;41.08;;;19.35;;
75285;SDS011;63879;46.064;14.532;2023-02-21T09:52:09;43.95;;;20.38;;
75285;SDS011;63879;46.064;14.532;2023-02-21T09:54:43;38.60;;;18.92;;
75285;SDS011;63879;46.064;14.532;2023-02-21T09:57:12;43.17;;;20.08;;
75285;SDS011;63879;46.064;14.532;2023-02-21T09:59:39;41.67;;;18.92;;
75285;SDS011;63879;46.064;14.532;2023-02-21T10:07:12;43.72;;;18.77;;
75285;SDS011;63879;46.064;14.532;2023-02-21T10:09:41;38.50;;;17.77;;
75285;SDS011;63879;46.064;14.532;2023-02-21T10:17:20;37.30;;;16.55;;
75285;SDS011;63879;46.064;14.532;2023-02-21T10:19:51;42.85;;;18.88;;
75285;SDS011;63879;46.064;14.532;2023-02-21T10:22:23;41.42;;;18.02;;
75285;SDS011;63879;46.064;14.532;2023-02-21T10:24:51;44.95;;;18.30;;
75285;SDS011;63879;46.064;14.532;2023-02-21T10:27:18;41.00;;;17.42;;
75285;SDS011;63879;46.064;14.532;2023-02-21T10:32:21;47.83;;;20.20;;
75285;SDS011;63879;46.064;14.532;2023-02-21T10:34:48;39.95;;;17.88;;
75285;SDS011;63879;46.064;14.532;2023-02-21T10:43:00;45.40;;;20.17;;
75285;SDS011;63879;46.064;14.532;2023-02-21T10:45:48;37.92;;;17.77;;
75285;SDS011;63879;46.064;14.532;2023-02-21T10:48:17;39.72;;;19.15;;
75285;SDS011;63879;46.064;14.532;2023-02-21T10:53:37;40.25;;;19.92;;
75285;SDS011;63879;46.064;14.532;2023-02-21T10:58:39;37.10;;;16.38;;
75285;SDS011;63879;46.064;14.532;2023-02-21T11:01:19;37.65;;;17.58;;
75285;SDS011;63879;46.064;14.532;2023-02-21T11:03:53;37.35;;;16.00;;
75285;SDS011;63879;46.064;14.532;2023-02-21T11:06:26;41.70;;;20.42;;
75285;SDS011;63879;46.064;14.532;2023-02-21T11:08:54;41.25;;;18.67;;
75285;SDS011;63879;46.064;14.532;2023-02-21T11:16:42;34.70;;;16.75;;
75285;SDS011;63879;46.064;14.532;2023-02-21T11:19:10;34.95;;;15.38;;
75285;SDS011;63879;46.064;14.532;2023-02-21T11:21:37;43.10;;;19.63;;
75285;SDS011;63879;46.064;14.532;2023-02-21T11:24:05;38.63;;;18.55;;
75285;SDS011;63879;46.064;14.532;2023-02-21T11:26:50;40.03;;;16.80;;
75285;SDS011;63879;46.064;14.532;2023-02-21T11:29:18;38.33;;;17.08;;
75285;SDS011;63879;46.064;14.532;2023-02-21T11:31:46;41.25;;;19.73;;
75285;SDS011;63879;46.064;14.532;2023-02-21T11:34:12;38.15;;;18.02;;
75285;SDS011;63879;46.064;14.532;2023-02-21T11:36:39;36.15;;;16.45;;
75285;SDS011;63879;46.064;14.532;2023-02-21T11:49:52;37.92;;;18.42;;
75285;SDS011;63879;46.064;14.532;2023-02-21T11:52:38;38.70;;;18.48;;
75285;SDS011;63879;46.064;14.532;2023-02-21T11:55:16;36.00;;;17.63;;
75285;SDS011;63879;46.064;14.532;2023-02-21T12:08:15;33.75;;;16.98;;
75285;SDS011;63879;46.064;14.532;2023-02-21T12:13:24;36.30;;;16.92;;
75285;SDS011;63879;46.064;14.532;2023-02-21T12:24:45;41.20;;;17.50;;
75285;SDS011;63879;46.064;14.532;2023-02-21T12:27:35;33.33;;;14.95;;
75285;SDS011;63879;46.064;14.532;2023-02-21T12:46:41;36.05;;;16.33;;
75285;SDS011;63879;46.064;14.532;2023-02-21T12:49:11;40.10;;;19.25;;
75285;SDS011;63879;46.064;14.532;2023-02-21T12:55:00;39.55;;;17.30;;
75285;SDS011;63879;46.064;14.532;2023-02-21T13:05:53;38.35;;;18.63;;
75285;SDS011;63879;46.064;14.532;2023-02-21T13:08:28;38.17;;;19.65;;
75285;SDS011;63879;46.064;14.532;2023-02-21T13:11:09;41.75;;;20.38;;
75285;SDS011;63879;46.064;14.532;2023-02-21T13:13:38;42.63;;;20.17;;
75285;SDS011;63879;46.064;14.532;2023-02-21T13:16:05;43.63;;;19.40;;
75285;SDS011;63879;46.064;14.532;2023-02-21T13:18:38;42.05;;;20.08;;
75285;SDS011;63879;46.064;14.532;2023-02-21T13:21:14;44.40;;;20.55;;
75285;SDS011;63879;46.064;14.532;2023-02-21T13:29:43;47.45;;;22.63;;
75285;SDS011;63879;46.064;14.532;2023-02-21T13:32:11;45.47;;;20.80;;
75285;SDS011;63879;46.064;14.532;2023-02-21T13:34:41;39.80;;;18.13;;
75285;SDS011;63879;46.064;14.532;2023-02-21T13:37:21;44.90;;;20.90;;
75285;SDS011;63879;46.064;14.532;2023-02-21T13:39:59;44.00;;;20.20;;
75285;SDS011;63879;46.064;14.532;2023-02-21T13:42:31;45.60;;;20.08;;
75285;SDS011;63879;46.064;14.532;2023-02-21T13:45:08;46.20;;;21.48;;
75285;SDS011;63879;46.064;14.532;2023-02-21T13:55:28;45.67;;;20.23;;
75285;SDS011;63879;46.064;14.532;2023-02-21T14:02:56;42.45;;;20.02;;
75285;SDS011;63879;46.064;14.532;2023-02-21T14:05:22;49.65;;;21.95;;
75285;SDS011;63879;46.064;14.532;2023-02-21T14:13:03;47.03;;;21.58;;
75285;SDS011;63879;46.064;14.532;2023-02-21T14:15:55;41.58;;;18.13;;
75285;SDS011;63879;46.064;14.532;2023-02-21T14:18:30;48.72;;;21.55;;
75285;SDS011;63879;46.064;14.532;2023-02-21T14:20:57;48.90;;;21.83;;
75285;SDS011;63879;46.064;14.532;2023-02-21T14:23:30;43.53;;;18.80;;
75285;SDS011;63879;46.064;14.532;2023-02-21T14:26:00;44.33;;;19.48;;
75285;SDS011;63879;46.064;14.532;2023-02-21T14:34:27;45.22;;;20.33;;
75285;SDS011;63879;46.064;14.532;2023-02-21T14:37:09;45.42;;;20.65;;
75285;SDS011;63879;46.064;14.532;2023-02-21T14:39:39;46.22;;;20.52;;
75285;SDS011;63879;46.064;14.532;2023-02-21T14:56:17;48.33;;;21.20;;
75285;SDS011;63879;46.064;14.532;2023-02-21T15:02:08;51.53;;;20.20;;
75285;SDS011;63879;46.064;14.532;2023-02-21T15:04:54;47.88;;;20.50;;
75285;SDS011;63879;46.064;14.532;2023-02-21T15:12:42;50.97;;;22.42;;
75285;SDS011;63879;46.064;14.532;2023-02-21T15:15:15;48.70;;;20.13;;
75285;SDS011;63879;46.064;14.532;2023-02-21T15:17:43;45.78;;;20.55;;
75285;SDS011;63879;46.064;14.532;2023-02-21T15:20:16;50.38;;;21.10;;
75285;SDS011;63879;46.064;14.532;2023-02-21T15:22:42;45.20;;;18.77;;
75285;SDS011;63879;46.064;14.532;2023-02-21T15:27:33;42.67;;;20.93;;
75285;SDS011;63879;46.064;14.532;2023-02-21T15:32:37;46.55;;;20.38;;
75285;SDS011;63879;46.064;14.532;2023-02-21T15:35:03;45.97;;;20.27;;
75285;SDS011;63879;46.064;14.532;2023-02-21T15:37:30;47.58;;;20.10;;
75285;SDS011;63879;46.064;14.532;2023-02-21T15:39:58;48.90;;;21.77;;
75285;SDS011;63879;46.064;14.532;2023-02-21T15:42:26;48.05;;;21.13;;
75285;SDS011;63879;46.064;14.532;2023-02-21T15:44:59;54.55;;;22.63;;
75285;SDS011;63879;46.064;14.532;2023-02-21T15:47:29;49.83;;;21.50;;
75285;SDS011;63879;46.064;14.532;2023-02-21T15:50:02;51.60;;;21.10;;
75285;SDS011;63879;46.064;14.532;2023-02-21T15:52:54;51.65;;;22.55;;
75285;SDS011;63879;46.064;14.532;2023-02-21T16:00:44;51.10;;;22.75;;
75285;SDS011;63879;46.064;14.532;2023-02-21T16:03:31;52.17;;;22.08;;
75285;SDS011;63879;46.064;14.532;2023-02-21T16:08:52;53.72;;;22.40;;
75285;SDS011;63879;46.064;14.532;2023-02-21T16:14:05;46.90;;;20.80;;
75285;SDS011;63879;46.064;14.532;2023-02-21T16:19:03;51.50;;;20.67;;
75285;SDS011;63879;46.064;14.532;2023-02-21T16:21:30;51.00;;;21.60;;
75285;SDS011;63879;46.064;14.532;2023-02-21T16:23:56;51.15;;;19.48;;
75285;SDS011;63879;46.064;14.532;2023-02-21T16:26:22;48.97;;;21.42;;
75285;SDS011;63879;46.064;14.532;2023-02-21T16:28:52;55.80;;;23.02;;
75285;SDS011;63879;46.064;14.532;2023-02-21T16:31:27;52.50;;;20.70;;
75285;SDS011;63879;46.064;14.532;2023-02-21T16:33:54;47.20;;;20.25;;
75285;SDS011;63879;46.064;14.532;2023-02-21T16:36:26;53.13;;;21.63;;
75285;SDS011;63879;46.064;14.532;2023-02-21T16:38:54;49.20;;;21.67;;
75285;SDS011;63879;46.064;14.532;2023-02-21T16:41:20;51.97;;;21.45;;
75285;SDS011;63879;46.064;14.532;2023-02-21T16:43:46;55.65;;;22.85;;
75285;SDS011;63879;46.064;14.532;2023-02-21T16:46:11;51.97;;;21.63;;
75285;SDS011;63879;46.064;14.532;2023-02-21T16:48:37;50.47;;;21.92;;
75285;SDS011;63879;46.064;14.532;2023-02-21T16:51:04;50.97;;;21.20;;
75285;SDS011;63879;46.064;14.532;2023-02-21T16:53:33;51.05;;;21.83;;
75285;SDS011;63879;46.064;14.532;2023-02-21T16:55:59;53.23;;;22.97;;
75285;SDS011;63879;46.064;14.532;2023-02-21T16:58:38;56.15;;;22.67;;
75285;SDS011;63879;46.064;14.532;2023-02-21T17:01:25;49.35;;;21.70;;
75285;SDS011;63879;46.064;14.532;2023-02-21T17:03:53;50.13;;;22.25;;
75285;SDS011;63879;46.064;14.532;2023-02-21T17:06:19;53.23;;;22.67;;
75285;SDS011;63879;46.064;14.532;2023-02-21T17:08:46;55.40;;;23.15;;
75285;SDS011;63879;46.064;14.532;2023-02-21T17:11:12;49.67;;;23.25;;
75285;SDS011;63879;46.064;14.532;2023-02-21T17:13:37;54.75;;;21.40;;
75285;SDS011;63879;46.064;14.532;2023-02-21T17:16:03;58.58;;;24.20;;
75285;SDS011;63879;46.064;14.532;2023-02-21T17:18:28;54.08;;;22.77;;
75285;SDS011;63879;46.064;14.532;2023-02-21T17:20:56;59.08;;;23.27;;
75285;SDS011;63879;46.064;14.532;2023-02-21T17:23:22;57.92;;;23.63;;
75285;SDS011;63879;46.064;14.532;2023-02-21T17:25:47;56.30;;;23.52;;
75285;SDS011;63879;46.064;14.532;2023-02-21T17:28:12;54.38;;;22.52;;
75285;SDS011;63879;46.064;14.532;2023-02-21T17:30:38;57.53;;;24.48;;
75285;SDS011;63879;46.064;14.532;2023-02-21T17:33:03;53.20;;;21.40;;
75285;SDS011;63879;46.064;14.532;2023-02-21T17:35:29;53.55;;;22.80;;
75285;SDS011;63879;46.064;14.532;2023-02-21T17:37:55;53.15;;;23.35;;
75285;SDS011;63879;46.064;14.532;2023-02-21T17:40:22;54.33;;;22.08;;
75285;SDS011;63879;46.064;14.532;2023-02-21T17:42:47;58.50;;;22.33;;
75285;SDS011;63879;46.064;14.532;2023-02-21T17:45:16;54.50;;;23.13;;
75285;SDS011;63879;46.064;14.532;2023-02-21T17:47:43;55.25;;;22.90;;
75285;SDS011;63879;46.064;14.532;2023-02-21T17:50:09;49.20;;;20.38;;
75285;SDS011;63879;46.064;14.532;2023-02-21T17:52:34;52.13;;;21.63;;
75285;SDS011;63879;46.064;14.532;2023-02-21T17:55:00;51.40;;;21.98;;
75285;SDS011;63879;46.064;14.532;2023-02-21T17:57:31;51.22;;;21.42;;
75285;SDS011;63879;46.064;14.532;2023-02-21T18:00:06;56.83;;;22.50;;
75285;SDS011;63879;46.064;14.532;2023-02-21T18:02:37;56.45;;;23.08;;
75285;SDS011;63879;46.064;14.532;2023-02-21T18:05:03;54.50;;;22.48;;
75285;SDS011;63879;46.064;14.532;2023-02-21T18:07:29;56.15;;;21.58;;
75285;SDS011;63879;46.064;14.532;2023-02-21T18:09:59;51.55;;;22.27;;
75285;SDS011;63879;46.064;14.532;2023-02-21T18:12:27;58.00;;;21.70;;
75285;SDS011;63879;46.064;14.532;2023-02-21T18:14:52;56.38;;;23.60;;
75285;SDS011;63879;46.064;14.532;2023-02-21T18:17:18;53.97;;;21.90;;
75285;SDS011;63879;46.064;14.532;2023-02-21T18:19:43;50.10;;;22.05;;
75285;SDS011;63879;46.064;14.532;2023-02-21T18:22:09;53.67;;;22.97;;
75285;SDS011;63879;46.064;14.532;2023-02-21T18:24:34;53.60;;;21.85;;
75285;SDS011;63879;46.064;14.532;2023-02-21T18:26:59;50.40;;;22.07;;
75285;SDS011;63879;46.064;14.532;2023-02-21T18:29:25;57.45;;;23.95;;
75285;SDS011;63879;46.064;14.532;2023-02-21T18:31:51;54.80;;;23.33;;
75285;SDS011;63879;46.064;14.532;2023-02-21T18:34:18;58.47;;;24.38;;
75285;SDS011;63879;46.064;14.532;2023-02-21T18:36:47;57.85;;;22.67;;
75285;SDS011;63879;46.064;14.532;2023-02-21T18:39:14;50.75;;;22.45;;
75285;SDS011;63879;46.064;14.532;2023-02-21T18:41:43;59.30;;;23.75;;
75285;SDS011;63879;46.064;14.532;2023-02-21T18:44:09;55.58;;;23.17;;
75285;SDS011;63879;46.064;14.532;2023-02-21T18:46:34;53.70;;;22.05;;
75285;SDS011;63879;46.064;14.532;2023-02-21T18:49:03;53.28;;;22.30;;
75285;SDS011;63879;46.064;14.532;2023-02-21T18:51:28;58.28;;;23.90;;
75285;SDS011;63879;46.064;14.532;2023-02-21T18:53:58;61.78;;;24.60;;
75285;SDS011;63879;46.064;14.532;2023-02-21T18:56:24;54.90;;;23.17;;
75285;SDS011;63879;46.064;14.532;2023-02-21T18:58:49;55.07;;;24.70;;
75285;SDS011;63879;46.064;14.532;2023-02-21T19:01:15;60.08;;;24.08;;
75285;SDS011;63879;46.064;14.532;2023-02-21T19:03:42;60.30;;;21.83;;
75285;SDS011;63879;46.064;14.532;2023-02-21T19:06:09;59.08;;;23.95;;
75285;SDS011;63879;46.064;14.532;2023-02-21T19:08:36;59.40;;;22.67;;
75285;SDS011;63879;46.064;14.532;2023-02-21T19:11:01;54.40;;;21.57;;
75285;SDS011;63879;46.064;14.532;2023-02-21T19:13:27;53.67;;;23.98;;
75285;SDS011;63879;46.064;14.532;2023-02-21T19:15:52;52.83;;;23.80;;
75285;SDS011;63879;46.064;14.532;2023-02-21T19:18:17;59.75;;;22.27;;
75285;SDS011;63879;46.064;14.532;2023-02-21T19:20:43;56.97;;;22.65;;
75285;SDS011;63879;46.064;14.532;2023-02-21T19:23:08;56.23;;;23.27;;
75285;SDS011;63879;46.064;14.532;2023-02-21T19:25:34;54.15;;;22.95;;
75285;SDS011;63879;46.064;14.532;2023-02-21T19:27:59;57.38;;;23.02;;
75285;SDS011;63879;46.064;14.532;2023-02-21T19:30:26;51.70;;;22.30;;
75285;SDS011;63879;46.064;14.532;2023-02-21T19:32:54;57.13;;;25.58;;
75285;SDS011;63879;46.064;14.532;2023-02-21T19:35:24;55.55;;;22.75;;
75285;SDS011;63879;46.064;14.532;2023-02-21T19:37:53;61.28;;;25.80;;
75285;SDS011;63879;46.064;14.532;2023-02-21T19:40:19;62.38;;;24.45;;
75285;SDS011;63879;46.064;14.532;2023-02-21T19:42:44;60.13;;;24.05;;
75285;SDS011;63879;46.064;14.532;2023-02-21T19:45:12;58.40;;;24.63;;
75285;SDS011;63879;46.064;14.532;2023-02-21T19:47:38;55.75;;;23.50;;
75285;SDS011;63879;46.064;14.532;2023-02-21T19:50:03;52.77;;;22.17;;
75285;SDS011;63879;46.064;14.532;2023-02-21T19:52:29;59.85;;;25.58;;
75285;SDS011;63879;46.064;14.532;2023-02-21T19:54:54;58.57;;;23.20;;
75285;SDS011;63879;46.064;14.532;2023-02-21T19:57:20;61.65;;;24.33;;
75285;SDS011;63879;46.064;14.532;2023-02-21T19:59:45;53.67;;;22.73;;
75285;SDS011;63879;46.064;14.532;2023-02-21T20:02:11;52.20;;;21.65;;
75285;SDS011;63879;46.064;14.532;2023-02-21T20:04:37;53.63;;;22.90;;
75285;SDS011;63879;46.064;14.532;2023-02-21T20:07:02;63.75;;;22.92;;
75285;SDS011;63879;46.064;14.532;2023-02-21T20:09:28;58.35;;;23.33;;
75285;SDS011;63879;46.064;14.532;2023-02-21T20:11:54;62.72;;;23.80;;
75285;SDS011;63879;46.064;14.532;2023-02-21T20:14:19;64.10;;;23.30;;
75285;SDS011;63879;46.064;14.532;2023-02-21T20:16:45;57.07;;;23.77;;
75285;SDS011;63879;46.064;14.532;2023-02-21T20:19:10;65.45;;;25.25;;
75285;SDS011;63879;46.064;14.532;2023-02-21T20:21:36;56.50;;;23.67;;
75285;SDS011;63879;46.064;14.532;2023-02-21T20:24:02;58.28;;;23.58;;
75285;SDS011;63879;46.064;14.532;2023-02-21T20:26:29;59.80;;;24.30;;
75285;SDS011;63879;46.064;14.532;2023-02-21T20:28:54;62.72;;;25.58;;
75285;SDS011;63879;46.064;14.532;2023-02-21T20:31:21;59.53;;;24.10;;
75285;SDS011;63879;46.064;14.532;2023-02-21T20:33:48;59.65;;;23.25;;
75285;SDS011;63879;46.064;14.532;2023-02-21T20:36:13;53.53;;;23.58;;
75285;SDS011;63879;46.064;14.532;2023-02-21T20:38:39;59.20;;;24.83;;
75285;SDS011;63879;46.064;14.532;2023-02-21T20:41:08;56.97;;;25.08;;
75285;SDS011;63879;46.064;14.532;2023-02-21T20:43:39;55.92;;;23.85;;
75285;SDS011;63879;46.064;14.532;2023-02-21T20:46:05;59.22;;;25.30;;
75285;SDS011;63879;46.064;14.532;2023-02-21T20:48:30;60.47;;;24.58;;
75285;SDS011;63879;46.064;14.532;2023-02-21T20:50:56;55.88;;;23.63;;
75285;SDS011;63879;46.064;14.532;2023-02-21T20:53:25;61.92;;;24.98;;
75285;SDS011;63879;46.064;14.532;2023-02-21T20:55:52;61.42;;;24.92;;
75285;SDS011;63879;46.064;14.532;2023-02-21T20:58:18;56.97;;;23.63;;
75285;SDS011;63879;46.064;14.532;2023-02-21T21:00:45;57.10;;;25.63;;
75285;SDS011;63879;46.064;14.532;2023-02-21T21:03:11;65.50;;;24.63;;
75285;SDS011;63879;46.064;14.532;2023-02-21T21:05:39;64.00;;;24.13;;
75285;SDS011;63879;46.064;14.532;2023-02-21T21:08:06;61.97;;;25.80;;
75285;SDS011;63879;46.064;14.532;2023-02-21T21:10:32;66.13;;;28.63;;
75285;SDS011;63879;46.064;14.532;2023-02-21T21:12:59;77.57;;;33.10;;
75285;SDS011;63879;46.064;14.532;2023-02-21T21:15:25;69.35;;;30.05;;
75285;SDS011;63879;46.064;14.532;2023-02-21T21:17:50;70.57;;;29.17;;
75285;SDS011;63879;46.064;14.532;2023-02-21T21:20:18;66.50;;;28.17;;
75285;SDS011;63879;46.064;14.532;2023-02-21T21:22:44;72.60;;;31.48;;
75285;SDS011;63879;46.064;14.532;2023-02-21T21:25:10;75.95;;;33.25;;
75285;SDS011;63879;46.064;14.532;2023-02-21T21:27:36;77.65;;;31.00;;
75285;SDS011;63879;46.064;14.532;2023-02-21T21:30:03;80.07;;;33.05;;
75285;SDS011;63879;46.064;14.532;2023-02-21T21:32:31;80.68;;;32.13;;
75285;SDS011;63879;46.064;14.532;2023-02-21T21:34:56;76.25;;;31.05;;
75285;SDS011;63879;46.064;14.532;2023-02-21T21:37:23;75.25;;;31.67;;
75285;SDS011;63879;46.064;14.532;2023-02-21T21:39:53;75.82;;;31.55;;
75285;SDS011;63879;46.064;14.532;2023-02-21T21:42:20;72.82;;;30.88;;
75285;SDS011;63879;46.064;14.532;2023-02-21T21:44:49;68.63;;;29.80;;
75285;SDS011;63879;46.064;14.532;2023-02-21T21:47:21;71.40;;;30.75;;
75285;SDS011;63879;46.064;14.532;2023-02-21T21:49:47;77.72;;;30.98;;
75285;SDS011;63879;46.064;14.532;2023-02-21T21:52:13;69.45;;;31.55;;
75285;SDS011;63879;46.064;14.532;2023-02-21T21:54:41;71.70;;;30.73;;
75285;SDS011;63879;46.064;14.532;2023-02-21T21:57:08;89.63;;;41.17;;
75285;SDS011;63879;46.064;14.532;2023-02-21T21:59:34;79.70;;;35.70;;
